Aérodrome :
LOGIN :

S'inscrire | Disclaimer

   EN    FR    IT 

 










Légende :    VFR   VFR Marginal   IFR   IFR Intensif   IFR Très Intensif
Visi : 
Plafond : 
>= 8 km
>= 3000ft
5 à 8 km
1000 à 3000 ft
1500m à 5 km
500 à 1000 ft
800 à 1500m
200 à 500 ft
< 800m
< 200 ft
Symboles :   Orages  Brouillard  Fortes neiges  Fortes précipitations  Vent > 20 kt
SIGMETs :   Divers  Orages  Givrage  Turbulence  Onde Orograph.  Cendres Volcan.






- Altitude de l'aérodrome : 781 ft
- Code IATA : SKP


LWSK - Skopje

DERNIER METAR :
  • 171730Z 12002KT CAVOK 06/01 Q1024 NOSIG

METARs EXPIRÉS :
  • 171700Z 13002KT CAVOK 07/02 Q1024 NOSIG
  • 171630Z 00000KT CAVOK 09/01 Q1024 NOSIG
  • 171600Z 28002KT CAVOK 13/01 Q1024 NOSIG
  • 171530Z 31002KT CAVOK 15/01 Q1024 NOSIG

TAF TAF LWSK
Valide du 17 à 18h jusqu'au 18 à 18h UTC


171730Z 1718/1818 VRB02KT CAVOK
BECMG 1810/1812 34010KT FEW050 SCT100



MET'MAP, la Météo Aéronautique d'un coup d'oeil ! - Copyright ORBIFLY Décembre 2007 - Disclaimer

ORBIFLY MET'MAP TEAM :

Programmation & Développement : Alexandra Zaïnal
Sur une idée originale de : Baudouin d'Aumeries
Assistance à la programmation : Marc-Olivier Méhu
Soutien technique & logistique : Manuel Goepfert

Contact : metmap@orbifly.com




SOURCES & CREDITS :

   NOAA